Time;durP1;ratioP1;P1;durP2;ratioP2;P2;SDS_P1;SDS_P2;PMS_P1;PMS_P2;Temp;Humidity;BMP_temperature;BMP_pressure;BME280_temperature;BME280_humidity;BME280_pressure;Samples;Min_cycle;Max_cycle;Signal;HPM_P1;HPM_P2
2022/05/08 00:01:56;;;;;;;4.90;3.78;;;11.50;99.90;;;;;;5028983;28;20065;-68
2022/05/08 00:04:21;;;;;;;5.28;3.78;;;11.60;99.90;;;;;;5049090;28;20504;-67
2022/05/08 00:06:47;;;;;;;5.53;3.15;;;11.60;99.90;;;;;;5028175;28;20030;-67
2022/05/08 00:09:12;;;;;;;4.10;2.90;;;11.70;99.90;;;;;;5048996;28;20032;-68
2022/05/08 00:11:38;;;;;;;4.35;3.15;;;11.70;99.90;;;;;;5029493;28;20048;-67
2022/05/08 00:14:03;;;;;;;2.90;2.38;;;11.80;99.90;;;;;;5046319;28;20431;-68
2022/05/08 00:16:29;;;;;;;3.60;2.50;;;11.90;99.90;;;;;;5048504;28;20382;-67
2022/05/08 00:18:54;;;;;;;3.53;2.05;;;12.00;99.90;;;;;;5045525;28;20044;-67
2022/05/08 00:21:20;;;;;;;2.90;2.00;;;12.10;99.90;;;;;;5048569;28;20064;-68
2022/05/08 00:23:46;;;;;;;5.18;2.22;;;12.00;99.90;;;;;;5044275;28;20028;-68
2022/05/08 00:26:12;;;;;;;3.20;1.95;;;12.10;99.90;;;;;;5048579;28;20397;-68
2022/05/08 00:28:38;;;;;;;3.45;2.38;;;12.20;99.90;;;;;;5042895;28;20025;-69
2022/05/08 00:31:04;;;;;;;4.28;2.38;;;12.20;99.90;;;;;;5047247;28;20033;-68
2022/05/08 00:33:31;;;;;;;3.78;2.83;;;12.20;99.90;;;;;;5041732;28;20112;-67
2022/05/08 00:35:57;;;;;;;3.33;2.42;;;12.30;99.90;;;;;;5048445;28;20029;-68
2022/05/08 00:38:22;;;;;;;3.08;2.22;;;12.30;99.90;;;;;;5040798;28;20029;-68
2022/05/08 00:40:48;;;;;;;4.05;2.30;;;12.40;99.90;;;;;;5048084;28;20044;-68
2022/05/08 00:43:28;;;;;;;2.63;2.25;;;12.40;99.90;;;;;;5038942;28;20041;-68
2022/05/08 00:45:55;;;;;;;2.67;2.35;;;12.40;99.90;;;;;;5008919;28;20489;-68
2022/05/08 00:48:20;;;;;;;3.38;2.30;;;12.40;99.90;;;;;;5045700;28;20036;-69
2022/05/08 00:50:46;;;;;;;2.35;1.95;;;12.50;99.90;;;;;;5048080;28;20573;-68
2022/05/08 00:53:12;;;;;;;2.65;2.33;;;12.50;99.90;;;;;;5039129;28;20103;-68
2022/05/08 00:55:38;;;;;;;2.88;2.20;;;12.50;99.90;;;;;;5048202;28;20515;-68
2022/05/08 00:58:05;;;;;;;5.57;2.33;;;12.50;99.90;;;;;;5037757;28;20032;-68
2022/05/08 01:00:30;;;;;;;3.50;3.17;;;12.50;99.90;;;;;;5032004;28;20132;-68
2022/05/08 01:02:57;;;;;;;4.85;2.97;;;12.50;99.90;;;;;;5036670;28;20104;-68
2022/05/08 01:05:23;;;;;;;3.90;3.17;;;12.40;99.90;;;;;;5028767;28;20037;-68
2022/05/08 01:07:49;;;;;;;4.95;3.22;;;12.40;99.90;;;;;;5045633;28;20115;-68
2022/05/08 01:10:16;;;;;;;4.65;3.30;;;12.40;99.90;;;;;;5028803;28;20209;-68
2022/05/08 01:12:44;;;;;;;4.97;3.65;;;12.30;99.90;;;;;;5045521;28;20033;-68
2022/05/08 01:15:14;;;;;;;4.85;2.85;;;12.30;99.90;;;;;;5034273;28;20037;-68
2022/05/08 01:17:40;;;;;;;2.97;2.53;;;12.30;99.90;;;;;;5046309;28;20025;-68
2022/05/08 01:20:06;;;;;;;5.15;3.65;;;12.30;99.90;;;;;;5028650;28;20033;-68
2022/05/08 01:22:32;;;;;;;3.20;2.67;;;12.30;99.90;;;;;;5045309;28;20033;-67
2022/05/08 01:24:59;;;;;;;2.97;2.53;;;12.30;99.90;;;;;;5048084;28;20028;-68
2022/05/08 01:27:25;;;;;;;3.47;2.97;;;12.30;99.90;;;;;;5032047;28;20507;-68
2022/05/08 01:29:50;;;;;;;3.03;2.30;;;12.40;99.90;;;;;;5047792;28;20021;-67
2022/05/08 01:32:16;;;;;;;3.72;2.92;;;12.40;99.90;;;;;;5031014;28;20021;-68
2022/05/08 01:34:41;;;;;;;2.35;2.05;;;12.50;99.90;;;;;;5047789;28;20037;-68
2022/05/08 01:37:07;;;;;;;3.28;1.80;;;12.50;99.90;;;;;;5029793;28;20044;-68
2022/05/08 01:39:32;;;;;;;2.83;1.77;;;12.60;99.90;;;;;;5047863;28;20059;-67
2022/05/08 01:41:58;;;;;;;3.00;2.10;;;12.60;99.90;;;;;;5028397;28;20049;-67
2022/05/08 01:44:24;;;;;;;2.50;2.00;;;12.60;99.90;;;;;;5047887;28;20025;-68
2022/05/08 01:48:21;;;;;;;3.80;2.08;;;12.60;99.90;;;;;;5027195;28;20025;-67
2022/05/08 01:49:35;;;;;;;3.63;1.90;;;12.70;99.90;;;;;;5038009;28;20071;-67
2022/05/08 01:52:01;;;;;;;4.05;2.15;;;12.70;99.80;;;;;;5045088;28;20033;-67
2022/05/08 01:54:26;;;;;;;4.30;1.75;;;12.70;98.90;;;;;;5049114;28;20029;-66
2022/05/08 01:56:52;;;;;;;3.72;2.00;;;12.80;98.70;;;;;;5031144;28;20266;-68
2022/05/08 01:59:17;;;;;;;4.25;2.30;;;12.80;98.40;;;;;;5050768;28;20042;-64
2022/05/08 02:01:46;;;;;;;3.08;1.88;;;12.80;97.80;;;;;;5024499;28;20103;-68
2022/05/08 02:04:15;;;;;;;4.10;2.40;;;12.80;98.70;;;;;;5011649;28;20109;-68
2022/05/08 02:06:42;;;;;;;3.17;2.17;;;12.70;99.20;;;;;;5050671;28;20082;-68
2022/05/08 02:09:07;;;;;;;2.28;1.83;;;12.70;99.50;;;;;;5049583;28;20108;-68
2022/05/08 02:11:33;;;;;;;3.20;2.08;;;12.60;99.90;;;;;;5031658;28;20124;-67
2022/05/08 02:13:58;;;;;;;2.47;2.00;;;12.60;99.90;;;;;;5048680;28;20064;-67
2022/05/08 02:16:24;;;;;;;2.78;2.10;;;12.50;99.90;;;;;;5050902;28;20041;-67
2022/05/08 02:18:50;;;;;;;2.40;2.20;;;12.50;99.90;;;;;;5046999;28;20033;-68
2022/05/08 02:21:16;;;;;;;2.65;2.00;;;12.40;99.90;;;;;;5050820;28;20033;-67
2022/05/08 02:23:42;;;;;;;4.00;2.65;;;12.40;99.90;;;;;;5045855;28;20174;-67
2022/05/08 02:26:08;;;;;;;2.20;1.73;;;12.30;99.90;;;;;;5050878;28;20516;-67
2022/05/08 02:28:33;;;;;;;2.20;2.00;;;12.20;99.90;;;;;;5044508;28;20025;-67
2022/05/08 02:30:59;;;;;;;2.38;1.77;;;12.20;99.90;;;;;;5050767;28;20086;-67
2022/05/08 02:33:25;;;;;;;2.58;2.35;;;12.10;99.90;;;;;;5043321;28;20025;-68
2022/05/08 02:35:50;;;;;;;3.35;2.03;;;12.00;99.90;;;;;;5050629;28;20423;-67
2022/05/08 02:38:16;;;;;;;2.63;2.00;;;12.00;99.90;;;;;;5041950;28;20029;-68
2022/05/08 02:40:41;;;;;;;8.23;2.55;;;11.90;99.90;;;;;;5050345;28;20032;-67
2022/05/08 02:43:06;;;;;;;2.03;1.77;;;11.90;99.90;;;;;;5040783;28;20044;-68
2022/05/08 02:45:32;;;;;;;3.03;1.98;;;11.80;99.90;;;;;;5050317;28;20108;-67
2022/05/08 02:47:57;;;;;;;2.53;2.10;;;11.80;99.90;;;;;;5039532;28;20484;-68
2022/05/08 02:50:24;;;;;;;3.28;2.08;;;11.80;99.90;;;;;;5030815;28;20029;-68
2022/05/08 02:52:50;;;;;;;2.83;2.05;;;11.70;99.90;;;;;;5047923;28;20036;-67
2022/05/08 03:00:46;;;;;;;2.53;2.00;;;11.70;99.90;;;;;;5031564;28;20090;-68
2022/05/08 03:03:12;;;;;;;3.15;2.25;;;11.80;99.90;;;;;;5040665;28;20523;-67
2022/05/08 03:05:40;;;;;;;3.13;1.90;;;11.70;99.90;;;;;;5049686;28;20048;-67
2022/05/08 03:08:06;;;;;;;4.80;1.80;;;11.70;99.90;;;;;;5039814;28;20025;-68
2022/05/08 03:11:25;;;;;;;3.10;2.50;;;11.80;99.90;;;;;;5030688;28;20025;-64
2022/05/08 03:13:18;;;;;;;2.45;1.95;;;11.80;99.90;;;;;;5019245;28;20114;-64
2022/05/08 03:15:44;;;;;;;2.33;1.80;;;11.80;99.90;;;;;;5040769;28;20079;-64
2022/05/08 03:18:10;;;;;;;2.33;2.13;;;11.80;99.90;;;;;;5040489;28;20025;-64
2022/05/08 03:20:35;;;;;;;2.55;2.10;;;11.80;99.90;;;;;;5049713;28;20045;-64
2022/05/08 03:23:01;;;;;;;3.10;1.90;;;11.80;99.90;;;;;;5039206;28;20392;-64
2022/05/08 03:25:26;;;;;;;2.00;1.77;;;11.80;99.90;;;;;;5030419;28;20026;-64
2022/05/08 03:27:53;;;;;;;2.95;2.30;;;11.80;99.90;;;;;;5047124;28;20519;-64
2022/05/08 03:30:20;;;;;;;3.45;2.42;;;11.80;99.90;;;;;;5030175;28;20029;-64
2022/05/08 03:32:46;;;;;;;3.08;2.28;;;11.80;99.90;;;;;;5047217;28;20219;-64
2022/05/08 03:35:11;;;;;;;3.42;2.15;;;11.80;99.90;;;;;;5030090;28;20104;-64
2022/05/08 03:37:37;;;;;;;3.13;2.30;;;11.80;99.90;;;;;;5046819;28;20481;-64
2022/05/08 03:40:02;;;;;;;2.67;2.38;;;11.80;99.90;;;;;;5049611;28;20021;-65
2022/05/08 03:42:28;;;;;;;2.55;2.33;;;11.80;99.90;;;;;;5034045;28;20227;-64
2022/05/08 03:44:54;;;;;;;5.30;2.88;;;11.70;99.90;;;;;;5048067;28;20550;-64
2022/05/08 03:47:20;;;;;;;3.85;3.20;;;11.70;99.90;;;;;;5032860;28;20036;-64
2022/05/08 03:49:46;;;;;;;3.05;2.50;;;11.70;99.90;;;;;;5049289;28;20400;-64
2022/05/08 03:52:12;;;;;;;2.72;2.35;;;11.70;99.90;;;;;;5031753;28;20494;-64
2022/05/08 03:54:38;;;;;;;3.20;2.58;;;11.70;99.90;;;;;;5049639;28;20032;-64
2022/05/08 03:57:04;;;;;;;4.15;2.28;;;11.70;99.90;;;;;;5031011;28;20613;-67
2022/05/08 03:59:30;;;;;;;3.60;2.30;;;11.70;99.90;;;;;;5039697;28;20487;-67
2022/05/08 04:01:56;;;;;;;4.32;2.97;;;11.70;99.90;;;;;;5028871;28;20091;-67
2022/05/08 04:04:22;;;;;;;3.85;2.53;;;11.70;99.90;;;;;;5049068;28;20036;-67
2022/05/08 04:06:47;;;;;;;3.58;2.53;;;11.70;99.90;;;;;;5027968;28;20417;-67
2022/05/08 04:09:14;;;;;;;2.50;2.30;;;11.80;99.90;;;;;;5049147;28;20032;-67
2022/05/08 04:11:39;;;;;;;6.63;3.08;;;11.80;99.90;;;;;;5029263;28;20030;-67
2022/05/08 04:14:05;;;;;;;2.95;2.30;;;11.80;99.90;;;;;;5046678;28;20500;-67
2022/05/08 04:16:31;;;;;;;4.55;2.83;;;11.80;99.90;;;;;;5029276;28;20060;-67
2022/05/08 04:18:57;;;;;;;4.65;3.00;;;11.90;99.90;;;;;;5045384;28;20025;-67
2022/05/08 04:21:22;;;;;;;3.25;2.90;;;11.90;99.90;;;;;;5048636;28;20048;-67
2022/05/08 04:26:33;;;;;;;3.70;2.85;;;12.00;99.90;;;;;;5009434;28;20557;-66
2022/05/08 04:29:00;;;;;;;4.97;3.15;;;12.10;99.90;;;;;;5045960;28;20032;-67
2022/05/08 04:31:25;;;;;;;3.60;2.78;;;12.10;99.90;;;;;;5048465;28;20039;-67
2022/05/08 04:33:51;;;;;;;3.28;2.75;;;12.10;99.90;;;;;;5044750;28;20029;-67
2022/05/08 04:36:18;;;;;;;4.75;3.00;;;12.20;99.90;;;;;;5048337;28;20131;-67
2022/05/08 04:38:43;;;;;;;3.58;3.13;;;12.20;99.90;;;;;;5043676;28;20052;-67
2022/05/08 04:41:09;;;;;;;3.17;2.65;;;12.30;99.90;;;;;;5048316;28;20033;-70
2022/05/08 04:43:34;;;;;;;3.30;2.80;;;12.40;99.90;;;;;;5042436;28;20021;-67
2022/05/08 04:46:00;;;;;;;3.95;2.78;;;12.60;99.90;;;;;;5048337;28;20040;-67
2022/05/08 04:48:26;;;;;;;5.32;3.38;;;12.70;99.90;;;;;;5041029;28;20488;-67
2022/05/08 04:50:51;;;;;;;4.68;2.70;;;12.70;99.90;;;;;;5048176;28;20032;-67
2022/05/08 04:53:17;;;;;;;3.67;3.25;;;12.70;99.90;;;;;;5040020;28;20029;-68
2022/05/08 04:55:42;;;;;;;4.00;3.28;;;12.70;99.90;;;;;;5048079;28;20033;-67
2022/05/08 04:58:08;;;;;;;4.10;2.83;;;12.70;99.90;;;;;;5038540;28;20554;-67
2022/05/08 05:00:34;;;;;;;3.45;2.95;;;12.80;99.90;;;;;;5029643;28;20059;-66
2022/05/08 05:03:00;;;;;;;6.15;3.60;;;12.70;99.90;;;;;;5045615;28;20025;-67
2022/05/08 05:05:26;;;;;;;4.10;2.53;;;12.80;99.90;;;;;;5027611;28;20503;-67
2022/05/08 05:07:52;;;;;;;3.17;2.50;;;12.80;99.90;;;;;;5045513;28;20108;-67
2022/05/08 05:10:17;;;;;;;3.90;2.78;;;12.90;99.90;;;;;;5028719;28;20410;-68
2022/05/08 05:12:43;;;;;;;4.15;3.13;;;13.00;99.90;;;;;;5045395;28;20032;-66
2022/05/08 05:15:09;;;;;;;3.88;3.05;;;13.10;99.90;;;;;;5034180;28;20136;-66
2022/05/08 05:17:35;;;;;;;4.28;3.20;;;13.20;99.90;;;;;;5046069;28;20553;-66
2022/05/08 05:20:01;;;;;;;3.58;2.55;;;13.30;99.90;;;;;;5047982;28;20029;-66
2022/05/08 05:22:27;;;;;;;3.47;2.70;;;13.30;99.90;;;;;;5032551;28;20033;-65
2022/05/08 05:24:56;;;;;;;3.95;3.00;;;13.40;99.90;;;;;;5047976;28;20504;-67
2022/05/08 05:27:22;;;;;;;3.60;2.85;;;13.70;99.90;;;;;;5031223;28;20025;-66
2022/05/08 05:29:47;;;;;;;4.18;2.83;;;14.00;99.90;;;;;;5049997;28;20021;-66
2022/05/08 05:32:13;;;;;;;3.05;2.45;;;14.40;99.90;;;;;;5034668;28;20066;-66
2022/05/08 05:34:38;;;;;;;4.32;2.97;;;14.60;99.90;;;;;;5051753;28;20469;-66
2022/05/08 05:37:04;;;;;;;3.55;2.97;;;15.00;99.90;;;;;;5033313;28;20037;-66
2022/05/08 05:39:29;;;;;;;2.58;2.30;;;15.90;99.90;;;;;;5052086;28;20123;-66
2022/05/08 05:41:55;;;;;;;2.63;2.40;;;17.80;94.80;;;;;;5032101;28;20046;-67
2022/05/08 05:44:21;;;;;;;5.35;2.40;;;18.70;81.10;;;;;;5051797;28;20082;-67
2022/05/08 05:49:30;;;;;;;3.83;2.95;;;17.90;86.30;;;;;;5051914;28;20594;-66
2022/05/08 05:51:56;;;;;;;2.40;1.83;;;17.40;89.10;;;;;;5030531;28;20124;-66
2022/05/08 05:54:23;;;;;;;3.08;2.40;;;17.00;89.60;;;;;;5051533;28;20480;-67
2022/05/08 05:56:49;;;;;;;3.95;2.28;;;16.80;91.70;;;;;;5030515;28;20030;-67
2022/05/08 05:59:14;;;;;;;4.30;2.47;;;16.80;92.00;;;;;;5051375;28;20028;-65
2022/05/08 06:01:40;;;;;;;4.28;2.38;;;17.20;87.30;;;;;;5024145;28;20106;-67
2022/05/08 06:04:45;;;;;;;4.50;2.50;;;18.20;79.60;;;;;;5049358;28;20029;-67
2022/05/08 06:08:11;;;;;;;2.15;1.95;;;21.80;54.50;;;;;;5043928;28;20400;-67
2022/05/08 06:11:36;;;;;;;4.30;2.50;;;25.50;33.20;;;;;;5040162;28;20037;-65
2022/05/08 06:15:01;;;;;;;4.40;2.05;;;28.10;24.50;;;;;;5051175;28;20033;-64
2022/05/08 06:18:27;;;;;;;4.32;1.98;;;29.40;19.50;;;;;;5038190;28;20070;-65
2022/05/08 06:21:52;;;;;;;5.07;2.30;;;30.30;16.90;;;;;;5040183;28;20052;-65
2022/05/08 06:25:17;;;;;;;2.13;1.58;;;29.00;14.40;;;;;;5051107;28;20037;-67
2022/05/08 06:28:43;;;;;;;5.50;2.35;;;29.30;17.60;;;;;;5043736;28;20041;-68
2022/05/08 06:32:08;;;;;;;4.15;1.90;;;30.40;12.60;;;;;;5047310;28;20033;-65
2022/05/08 06:35:33;;;;;;;4.18;1.63;;;31.50;12.50;;;;;;5039500;28;20511;-65
2022/05/08 06:38:59;;;;;;;5.20;1.67;;;30.60;11.10;;;;;;5043618;28;20036;-65
2022/05/08 06:42:24;;;;;;;4.10;1.90;;;31.00;10.30;;;;;;5042029;28;20041;-65
2022/05/08 06:45:50;;;;;;;5.90;1.90;;;31.40;9.60;;;;;;5050871;28;20041;-66
2022/05/08 06:49:15;;;;;;;3.38;1.60;;;28.70;12.20;;;;;;5039890;28;20033;-65
2022/05/08 06:52:40;;;;;;;2.45;1.48;;;26.70;14.20;;;;;;5037572;28;20542;-66
2022/05/08 06:56:06;;;;;;;4.72;2.03;;;25.40;16.70;;;;;;5050597;28;20033;-66
2022/05/08 07:03:01;;;;;;;3.75;1.70;;;23.20;18.50;;;;;;5042727;28;20076;-67
2022/05/08 07:06:27;;;;;;;6.15;1.77;;;22.60;21.60;;;;;;5010763;28;20433;-67
2022/05/08 07:09:52;;;;;;;4.13;1.85;;;22.20;22.00;;;;;;5050585;28;20076;-66
2022/05/08 07:13:22;;;;;;;5.00;1.73;;;22.20;23.00;;;;;;5044556;28;20029;-66
2022/05/08 07:16:43;;;;;;;5.93;2.13;;;23.40;20.40;;;;;;5044842;28;20143;-66
2022/05/08 07:20:08;;;;;;;3.83;1.65;;;26.50;15.10;;;;;;5049964;28;20067;-67
2022/05/08 07:23:33;;;;;;;4.10;1.55;;;29.80;11.10;;;;;;5028077;28;20044;-67
2022/05/08 07:26:59;;;;;;;4.53;1.65;;;32.30;9.00;;;;;;5010409;28;20124;-67
2022/05/08 07:30:24;;;;;;;3.70;1.52;;;34.00;3.60;;;;;;5010476;28;20486;-67
2022/05/08 07:36:12;;;;;;;9.07;2.15;;;35.60;2.80;;;;;;5037415;28;20095;-67
2022/05/08 07:37:15;;;;;;;3.72;2.00;;;36.20;1.80;;;;;;5041412;28;20037;-68
2022/05/08 07:40:42;;;;;;;3.50;1.65;;;37.20;2.60;;;;;;5046344;28;20037;-69
2022/05/08 07:44:06;;;;;;;3.42;1.77;;;37.80;1.00;;;;;;5036433;28;20085;-68
2022/05/08 07:47:31;;;;;;;3.33;1.38;;;38.10;1.00;;;;;;5036522;28;20060;-68
2022/05/08 07:50:59;;;;;;;3.10;1.50;;;36.70;1.00;;;;;;5010134;28;20124;-69
2022/05/08 07:54:22;;;;;;;3.72;1.63;;;37.70;1.00;;;;;;5045416;28;20067;-68
2022/05/08 07:57:47;;;;;;;3.92;1.42;;;37.40;1.00;;;;;;5044082;28;20737;-68
2022/05/08 08:01:12;;;;;;;4.00;1.40;;;36.70;1.00;;;;;;5025049;28;20080;-69
2022/05/08 08:04:38;;;;;;;5.03;1.85;;;37.50;1.00;;;;;;5044915;28;20037;-69
2022/05/08 08:08:03;;;;;;;4.88;1.95;;;38.30;1.00;;;;;;5036206;28;20117;-69
2022/05/08 08:11:29;;;;;;;4.47;1.90;;;38.80;1.00;;;;;;5009766;28;20026;-69
2022/05/08 08:14:54;;;;;;;3.28;1.50;;;38.80;1.00;;;;;;5043744;28;20042;-69
2022/05/08 08:18:19;;;;;;;3.42;1.70;;;38.90;1.00;;;;;;5035877;28;20037;-70
2022/05/08 08:21:45;;;;;;;5.07;1.90;;;39.20;1.00;;;;;;5037650;28;20053;-69
2022/05/08 08:25:10;;;;;;;4.35;1.80;;;39.50;1.00;;;;;;5048894;28;20033;-69
2022/05/08 08:28:35;;;;;;;3.13;1.40;;;38.80;1.00;;;;;;5027396;28;20036;-69
2022/05/08 08:32:01;;;;;;;2.75;1.38;;;39.30;1.00;;;;;;5009237;28;20555;-70
2022/05/08 08:35:26;;;;;;;7.18;1.92;;;39.50;1.00;;;;;;5037645;28;20041;-67
2022/05/08 08:38:52;;;;;;;3.22;1.63;;;39.30;1.00;;;;;;5036158;28;20086;-66
2022/05/08 08:42:17;;;;;;;2.97;1.48;;;38.80;1.00;;;;;;5037405;28;20029;-67
2022/05/08 08:49:07;;;;;;;4.65;1.73;;;38.80;1.00;;;;;;5035548;28;20058;-66
2022/05/08 08:52:32;;;;;;;2.53;1.30;;;38.60;1.00;;;;;;5009576;28;20050;-66
2022/05/08 08:55:59;;;;;;;3.75;2.15;;;38.50;1.00;;;;;;5048433;28;20708;-66
2022/05/08 08:59:23;;;;;;;4.13;1.65;;;38.10;1.00;;;;;;5040534;28;20158;-66
2022/05/08 09:02:55;;;;;;;2.92;1.58;;;37.50;1.00;;;;;;5035226;28;20035;-66
2022/05/08 09:06:19;;;;;;;3.22;1.77;;;37.80;1.00;;;;;;5047795;28;20607;-66
2022/05/08 09:09:57;;;;;;;5.63;1.55;;;38.00;1.00;;;;;;5045840;28;20116;-66
2022/05/08 09:13:23;;;;;;;2.28;1.27;;;38.50;1.00;;;;;;5035307;28;20543;-66
2022/05/08 09:16:48;;;;;;;6.47;2.50;;;38.40;1.00;;;;;;5036745;28;20049;-66
2022/05/08 09:20:13;;;;;;;5.25;1.70;;;37.40;1.00;;;;;;5048037;28;20553;-66
2022/05/08 09:23:19;;;;;;;3.28;1.90;;;37.60;1.00;;;;;;5035615;28;20036;-67
2022/05/08 09:26:50;;;;;;;3.67;1.75;;;37.20;1.00;;;;;;5031908;28;20036;-67
2022/05/08 09:30:12;;;;;;;4.80;2.22;;;37.50;1.00;;;;;;5047940;28;20040;-67
2022/05/08 09:33:44;;;;;;;4.28;1.70;;;37.10;1.00;;;;;;5037112;28;20037;-67
2022/05/08 09:37:09;;;;;;;5.65;2.20;;;37.20;1.00;;;;;;5036992;28;20393;-66
2022/05/08 09:40:39;;;;;;;4.18;2.00;;;37.10;1.00;;;;;;5038335;28;20061;-67
2022/05/08 09:44:08;;;;;;;2.70;1.63;;;37.00;1.00;;;;;;5034528;28;20511;-67
2022/05/08 09:47:33;;;;;;;5.45;2.05;;;37.00;1.00;;;;;;5035001;28;20431;-66
2022/05/08 09:50:58;;;;;;;4.93;1.83;;;36.10;1.00;;;;;;5047763;28;20043;-67
2022/05/08 09:54:24;;;;;;;5.32;2.30;;;36.10;1.00;;;;;;5042526;28;20033;-67
2022/05/08 09:57:09;;;;;;;5.18;2.08;;;35.70;1.00;;;;;;5034394;28;20093;-61
2022/05/08 10:00:16;;;;;;;6.95;2.28;;;35.10;1.00;;;;;;5047321;28;20128;-64
2022/05/08 10:03:43;;;;;;;4.60;1.88;;;32.90;1.00;;;;;;5036486;28;20094;-70
2022/05/08 10:07:05;;;;;;;5.45;1.98;;;30.30;1.00;;;;;;5042869;28;20033;-70
2022/05/08 10:14:01;;;;;;;3.70;1.88;;;26.70;2.70;;;;;;5031738;28;20047;-71
2022/05/08 10:17:26;;;;;;;4.97;2.10;;;26.00;3.40;;;;;;5016386;28;20053;-70
2022/05/08 10:20:50;;;;;;;3.75;1.65;;;25.40;5.20;;;;;;5031437;28;20037;-71
2022/05/08 10:24:22;;;;;;;5.80;1.75;;;25.20;5.90;;;;;;5020965;28;20033;-70
2022/05/08 10:27:22;;;;;;;5.63;1.80;;;24.80;4.90;;;;;;5018206;28;20045;-70
2022/05/08 10:30:08;;;;;;;3.10;1.40;;;24.40;5.70;;;;;;5031125;28;20076;-70
2022/05/08 10:33:33;;;;;;;2.33;1.58;;;24.30;4.70;;;;;;5019163;28;20060;-70
2022/05/08 10:36:59;;;;;;;3.53;1.42;;;24.20;6.20;;;;;;4991823;28;20118;-71
2022/05/08 10:40:24;;;;;;;7.22;2.10;;;24.10;6.00;;;;;;5019932;28;20037;-70
2022/05/08 10:43:12;;;;;;;5.45;1.58;;;23.80;6.30;;;;;;5018266;28;20041;-71
2022/05/08 10:46:40;;;;;;;4.47;1.80;;;23.60;5.80;;;;;;5011301;28;20096;-70
2022/05/08 10:50:06;;;;;;;5.28;1.77;;;23.60;7.90;;;;;;5011150;28;20374;-71
2022/05/08 10:53:49;;;;;;;6.65;1.58;;;23.50;7.20;;;;;;5018148;28;20041;-71
2022/05/08 10:57:15;;;;;;;4.93;1.40;;;23.30;7.30;;;;;;5024942;28;20038;-72
2022/05/08 11:00:40;;;;;;;4.30;1.35;;;23.10;8.00;;;;;;5010812;28;20038;-71
2022/05/08 11:04:05;;;;;;;5.82;1.58;;;22.90;6.60;;;;;;5027266;28;20044;-71
2022/05/08 11:07:31;;;;;;;4.97;1.70;;;22.80;7.00;;;;;;5017600;28;20038;-71
2022/05/08 11:10:57;;;;;;;2.72;1.35;;;22.60;6.50;;;;;;4991418;28;20046;-71
2022/05/08 11:14:28;;;;;;;5.25;1.60;;;22.50;6.60;;;;;;5025092;28;20048;-71
2022/05/08 11:17:53;;;;;;;3.38;1.50;;;22.40;6.00;;;;;;5018845;28;20045;-72
2022/05/08 11:21:29;;;;;;;5.07;1.50;;;22.40;6.00;;;;;;5019327;28;20052;-72
2022/05/08 11:25:03;;;;;;;4.03;1.60;;;22.40;6.70;;;;;;5019665;28;20041;-72
2022/05/08 11:28:35;;;;;;;4.45;1.40;;;22.30;5.30;;;;;;5016986;28;20052;-72
2022/05/08 11:39:03;;;;;;;5.63;1.70;;;21.90;6.70;;;;;;5012850;28;20117;-73
2022/05/08 11:42:28;;;;;;;4.25;1.42;;;22.10;6.20;;;;;;5016906;28;20124;-72
2022/05/08 11:45:53;;;;;;;4.18;1.15;;;22.10;6.20;;;;;;5029874;28;20037;-73
2022/05/08 11:49:18;;;;;;;4.75;1.55;;;22.00;5.40;;;;;;5024465;28;20040;-72
2022/05/08 11:52:44;;;;;;;2.70;1.33;;;21.90;5.40;;;;;;5023987;28;20091;-72
2022/05/08 11:56:09;;;;;;;4.20;1.73;;;21.80;4.80;;;;;;4990387;28;20085;-72
2022/05/08 11:59:38;;;;;;;3.85;1.35;;;21.70;4.90;;;;;;5024263;28;20040;-73
2022/05/08 12:03:09;;;;;;;6.28;1.02;;;21.70;4.70;;;;;;5016421;28;20033;-73
2022/05/08 12:06:13;;;;;;;2.15;1.10;;;21.60;4.70;;;;;;5021277;28;20045;-73
2022/05/08 12:09:19;;;;;;;4.50;1.10;;;21.60;4.40;;;;;;5029863;28;20667;-73
2022/05/08 12:12:49;;;;;;;1.50;1.10;;;21.60;4.20;;;;;;5020645;28;20068;-73
2022/05/08 12:16:17;;;;;;;4.93;1.55;;;21.50;4.50;;;;;;5028559;28;20056;-73
2022/05/08 12:19:49;;;;;;;3.88;1.27;;;21.30;4.10;;;;;;5040452;28;20045;-73
2022/05/08 12:23:20;;;;;;;3.65;1.30;;;21.10;4.40;;;;;;5043814;28;20033;-74
2022/05/08 12:26:46;;;;;;;2.80;1.08;;;21.00;4.70;;;;;;5041314;28;20473;-74
2022/05/08 12:30:11;;;;;;;3.38;1.33;;;21.10;3.60;;;;;;5020512;28;20045;-73
2022/05/08 12:33:37;;;;;;;3.25;1.27;;;21.00;4.60;;;;;;5037219;28;20045;-74
2022/05/08 12:37:02;;;;;;;3.83;1.15;;;21.00;4.20;;;;;;5038222;28;20040;-74
2022/05/08 12:40:28;;;;;;;2.10;0.93;;;21.20;4.90;;;;;;5035133;28;20029;-74
2022/05/08 12:43:54;;;;;;;3.72;1.30;;;21.20;5.20;;;;;;5036001;28;20045;-74
2022/05/08 12:47:21;;;;;;;5.00;1.13;;;21.20;5.10;;;;;;5049066;28;20349;-74
2022/05/08 12:50:48;;;;;;;2.47;1.13;;;21.10;5.10;;;;;;5040775;28;20033;-74
2022/05/08 12:54:12;;;;;;;3.15;1.23;;;21.00;5.40;;;;;;5042824;28;20041;-72
2022/05/08 13:01:01;;;;;;;4.70;1.67;;;21.20;6.30;;;;;;5040793;28;20095;-73
2022/05/08 13:04:26;;;;;;;4.43;1.58;;;21.20;6.10;;;;;;5035063;28;20037;-74
2022/05/08 13:07:52;;;;;;;4.40;1.60;;;21.40;6.10;;;;;;5037227;28;20045;-73
2022/05/08 13:11:17;;;;;;;3.83;1.40;;;21.30;5.50;;;;;;5048509;28;20033;-73
2022/05/08 13:14:42;;;;;;;4.25;1.70;;;21.30;7.00;;;;;;5042821;28;20488;-73
2022/05/08 13:18:08;;;;;;;6.60;1.60;;;21.20;7.20;;;;;;5042004;28;20048;-72
2022/05/08 13:21:34;;;;;;;4.20;1.92;;;21.00;7.00;;;;;;5044664;28;20472;-73
2022/05/08 13:24:59;;;;;;;7.50;2.33;;;20.70;7.30;;;;;;5035378;28;20041;-73
2022/05/08 13:28:24;;;;;;;5.03;1.73;;;20.30;8.30;;;;;;5034922;28;20033;-73
2022/05/08 13:31:51;;;;;;;2.85;1.38;;;20.30;8.80;;;;;;5048367;28;20079;-73
2022/05/08 13:34:55;;;;;;;6.07;2.60;;;20.10;8.50;;;;;;5037077;28;20033;-72
2022/05/08 13:38:00;;;;;;;5.32;2.17;;;19.90;9.40;;;;;;5027222;28;20065;-74
2022/05/08 13:41:26;;;;;;;4.70;1.67;;;19.90;9.70;;;;;;5035314;28;20033;-73
2022/05/08 13:44:51;;;;;;;5.40;1.90;;;20.10;8.70;;;;;;5008327;28;20049;-73
2022/05/08 13:48:16;;;;;;;4.53;1.73;;;20.00;8.20;;;;;;5036789;28;20033;-73
2022/05/08 13:51:02;;;;;;;7.80;1.83;;;19.90;8.40;;;;;;5042850;28;20049;-73
2022/05/08 13:53:47;;;;;;;5.55;1.35;;;19.70;7.90;;;;;;5048350;28;20044;-71
2022/05/08 13:56:53;;;;;;;4.73;1.60;;;19.60;8.00;;;;;;5015823;28;20036;-73
2022/05/08 14:00:19;;;;;;;5.78;2.40;;;19.40;8.80;;;;;;5019794;28;20051;-66
2022/05/08 14:03:43;;;;;;;4.60;1.90;;;19.60;8.90;;;;;;5019593;28;20509;-64
2022/05/08 14:07:09;;;;;;;4.03;1.67;;;19.60;8.20;;;;;;5033408;28;20050;-64
2022/05/08 14:10:34;;;;;;;7.38;1.90;;;19.70;7.80;;;;;;5026199;28;20617;-65
2022/05/08 14:13:40;;;;;;;5.15;1.50;;;19.70;6.70;;;;;;5008744;28;20109;-66
2022/05/08 14:16:45;;;;;;;3.40;1.33;;;19.70;7.10;;;;;;5022979;28;20046;-65
2022/05/08 14:20:11;;;;;;;4.53;1.40;;;19.70;6.60;;;;;;5033988;28;20128;-65
2022/05/08 14:23:36;;;;;;;2.47;1.15;;;19.60;6.30;;;;;;5051319;28;20045;-65
2022/05/08 14:27:01;;;;;;;8.75;1.42;;;19.60;6.10;;;;;;5035675;28;20615;-65
2022/05/08 14:30:27;;;;;;;4.03;1.65;;;19.50;4.60;;;;;;5029767;28;20034;-71
2022/05/08 14:37:16;;;;;;;5.82;1.65;;;19.30;3.80;;;;;;5010812;28;20069;-71
2022/05/08 14:40:42;;;;;;;3.90;1.20;;;19.30;4.10;;;;;;5045322;28;20120;-71
2022/05/08 14:44:07;;;;;;;3.33;1.33;;;19.30;4.20;;;;;;5035656;28;20049;-72
2022/05/08 14:47:34;;;;;;;4.10;1.70;;;19.20;2.90;;;;;;5032815;28;20033;-72
2022/05/08 14:50:57;;;;;;;3.95;1.40;;;19.20;1.30;;;;;;5032567;28;20366;-74
2022/05/08 14:54:23;;;;;;;9.73;1.88;;;19.10;1.20;;;;;;5029501;28;20028;-70
2022/05/08 14:57:48;;;;;;;3.45;1.30;;;19.10;1.00;;;;;;5028840;28;20089;-73
2022/05/08 15:01:14;;;;;;;3.60;1.65;;;19.00;1.00;;;;;;5029880;28;20042;-73
2022/05/08 15:04:40;;;;;;;2.40;1.20;;;19.00;1.00;;;;;;5044044;28;20132;-71
2022/05/08 15:08:04;;;;;;;3.28;1.42;;;18.90;1.00;;;;;;5037958;28;20090;-70
2022/05/08 15:11:30;;;;;;;2.30;1.50;;;18.70;1.00;;;;;;5049101;28;20081;-68
2022/05/08 15:14:55;;;;;;;5.70;1.75;;;18.70;1.00;;;;;;5036595;28;20045;-65
2022/05/08 15:21:45;;;;;;;4.82;1.35;;;18.80;1.00;;;;;;5049020;28;20052;-67
2022/05/08 15:25:10;;;;;;;2.17;1.00;;;18.80;1.00;;;;;;5036042;28;20064;-66
2022/05/08 15:28:35;;;;;;;2.67;1.05;;;18.70;1.00;;;;;;5036049;28;20037;-67
2022/05/08 15:32:02;;;;;;;2.45;1.35;;;18.70;1.00;;;;;;5045167;28;20048;-67
2022/05/08 15:35:26;;;;;;;2.25;1.20;;;18.60;1.00;;;;;;5034802;28;20024;-67
2022/05/08 15:38:52;;;;;;;2.13;1.30;;;18.60;1.00;;;;;;5037882;28;20041;-67
2022/05/08 15:42:17;;;;;;;2.45;1.10;;;18.50;1.00;;;;;;5032886;28;20474;-67
2022/05/08 15:45:43;;;;;;;5.25;1.33;;;18.40;1.00;;;;;;5038973;28;20037;-65
2022/05/08 15:49:08;;;;;;;3.63;1.70;;;18.50;1.00;;;;;;5043763;28;20083;-65
2022/05/08 15:52:33;;;;;;;3.30;1.60;;;18.40;1.00;;;;;;5033642;28;20405;-66
2022/05/08 15:55:58;;;;;;;3.70;1.80;;;18.40;1.00;;;;;;5006484;28;20042;-66
2022/05/08 15:58:45;;;;;;;2.42;1.27;;;18.40;1.00;;;;;;5046040;28;20110;-66
2022/05/08 16:01:11;;;;;;;2.10;1.00;;;18.40;1.00;;;;;;5018131;28;20049;-68
2022/05/08 16:03:36;;;;;;;1.85;1.00;;;18.30;1.00;;;;;;5044556;28;20048;-66